Time;durP1;ratioP1;P1;durP2;ratioP2;P2;SDS_P1;SDS_P2;PMS_P1;PMS_P2;Temp;Humidity;BMP_temperature;BMP_pressure;BME280_temperature;BME280_humidity;BME280_pressure;Samples;Min_cycle;Max_cycle;Signal;HPM_P1;HPM_P2
2021/05/24 03:32:36;;;;;;;2.43;2.10;;;;;;;11.45;57.94;98612.38;7366305;23;20235;-81
2021/05/24 03:35:57;;;;;;;2.87;2.67;;;;;;;11.41;57.52;98609.31;6893562;28;20290;-81
2021/05/24 03:39:20;;;;;;;5.03;2.50;;;;;;;11.77;57.78;98603.28;6893960;28;20654;-81
2021/05/24 03:42:41;;;;;;;2.53;2.13;;;;;;;11.71;57.53;98601.47;6906927;28;20302;-82
2021/05/24 03:46:02;;;;;;;2.93;2.63;;;;;;;11.43;57.67;98584.75;6921294;28;20254;-79
2021/05/24 03:49:24;;;;;;;2.60;2.40;;;;;;;11.69;57.43;98582.78;6919791;28;20213;-81
2021/05/24 03:52:46;;;;;;;2.97;2.47;;;;;;;11.86;56.95;98585.81;6920090;28;20224;-81
2021/05/24 03:56:07;;;;;;;3.63;2.77;;;;;;;11.22;57.48;98552.72;6921055;28;20230;-81
2021/05/24 03:59:28;;;;;;;3.33;3.07;;;;;;;11.75;56.98;98597.28;6920510;28;20211;-81
2021/05/24 04:02:49;;;;;;;3.23;2.70;;;;;;;11.35;57.96;98566.13;6919849;28;20724;-81
2021/05/24 04:06:14;;;;;;;3.50;3.20;;;;;;;11.80;57.80;98600.97;6920738;28;20203;-81
2021/05/24 04:09:36;;;;;;;3.27;2.83;;;;;;;11.60;57.09;98586.78;6920728;28;20207;-81
2021/05/24 04:12:57;;;;;;;3.40;2.63;;;;;;;11.76;57.19;98571.94;6920164;28;20253;-81
2021/05/24 04:16:18;;;;;;;4.63;2.40;;;;;;;12.06;56.79;98595.41;6920691;28;20227;-81
2021/05/24 04:19:41;;;;;;;3.10;2.80;;;;;;;11.42;57.34;98600.16;6920917;28;20203;-81
2021/05/24 04:23:03;;;;;;;3.10;2.90;;;;;;;11.11;59.30;98605.44;6920048;28;20224;-82
2021/05/24 04:26:24;;;;;;;3.10;2.80;;;;;;;11.35;58.44;98585.03;6921832;28;20204;-79
2021/05/24 04:29:46;;;;;;;7.20;2.60;;;;;;;11.83;57.72;98587.06;6900639;28;20228;-80
2021/05/24 04:33:07;;;;;;;4.57;2.60;;;;;;;12.15;56.85;98599.47;6910771;28;20703;-79
2021/05/24 04:36:28;;;;;;;5.87;5.33;;;;;;;12.13;56.59;98589.94;6920126;28;20220;-80
2021/05/24 04:39:50;;;;;;;4.10;2.67;;;;;;;12.15;56.99;98585.16;6920889;28;20207;-80
2021/05/24 04:43:11;;;;;;;3.83;2.30;;;;;;;11.69;57.42;98566.56;6919527;28;20224;-80
2021/05/24 04:46:33;;;;;;;2.60;2.40;;;;;;;12.11;57.14;98578.53;6920895;28;20196;-79
2021/05/24 04:49:54;;;;;;;3.03;2.40;;;;;;;12.06;57.16;98568.41;6920987;28;20247;-80
2021/05/24 04:53:15;;;;;;;2.60;2.40;;;;;;;12.07;57.38;98556.53;6920730;28;20239;-80
2021/05/24 04:56:37;;;;;;;3.33;2.37;;;;;;;12.09;57.06;98562.53;6921232;28;20223;-78
2021/05/24 04:59:58;;;;;;;3.70;2.53;;;;;;;12.22;57.03;98557.00;6922542;28;20207;-76
2021/05/24 05:03:19;;;;;;;4.07;2.10;;;;;;;12.10;57.12;98576.88;6921650;28;20718;-77
2021/05/24 05:06:42;;;;;;;3.43;2.80;;;;;;;12.36;56.68;98582.06;6926818;28;20262;-76
2021/05/24 05:10:04;;;;;;;3.00;2.37;;;;;;;12.36;57.28;98549.63;6922432;28;20695;-78
2021/05/24 05:13:26;;;;;;;3.40;2.63;;;;;;;12.24;57.73;98563.03;6923871;28;20231;-77
2021/05/24 05:16:47;;;;;;;3.07;2.80;;;;;;;12.30;57.52;98540.53;6921592;28;20228;-77
2021/05/24 05:20:10;;;;;;;4.27;2.67;;;;;;;12.49;57.41;98571.09;6923107;28;20200;-78
2021/05/24 05:23:31;;;;;;;2.93;2.67;;;;;;;12.36;58.43;98577.50;6926149;28;20215;-79
2021/05/24 05:26:52;;;;;;;2.70;2.50;;;;;;;12.65;57.65;98557.03;6926426;28;20210;-78
2021/05/24 05:30:15;;;;;;;2.70;2.50;;;;;;;13.36;55.88;98560.78;6926347;28;20668;-79
2021/05/24 05:33:36;;;;;;;3.07;2.77;;;;;;;13.16;56.61;98552.91;6926742;28;20211;-80
2021/05/24 05:36:57;;;;;;;5.90;3.20;;;;;;;13.59;55.28;98558.16;6925516;28;20722;-80
2021/05/24 05:40:19;;;;;;;3.27;2.87;;;;;;;12.94;56.20;98527.34;6924213;28;20263;-79
2021/05/24 05:43:41;;;;;;;3.87;3.00;;;;;;;13.23;56.11;98561.75;6928440;28;20714;-79
2021/05/24 05:47:03;;;;;;;4.17;3.27;;;;;;;13.10;55.45;98520.53;6928449;28;20209;-80
2021/05/24 05:50:24;;;;;;;3.60;3.17;;;;;;;13.42;55.84;98547.16;6928365;28;20203;-79
2021/05/24 05:53:46;;;;;;;4.67;2.80;;;;;;;13.76;55.07;98543.72;6935753;28;20201;-80
2021/05/24 05:57:07;;;;;;;3.90;3.43;;;;;;;13.97;53.31;98526.94;6919879;28;20256;-79
2021/05/24 06:00:28;;;;;;;3.13;2.83;;;;;;;14.06;54.09;98540.97;6930469;28;20212;-79
2021/05/24 06:03:51;;;;;;;4.17;3.10;;;;;;;14.22;53.60;98541.13;6909313;28;20227;-78
2021/05/24 06:07:12;;;;;;;3.80;2.80;;;;;;;13.61;55.32;98539.78;6894380;28;20236;-80
2021/05/24 06:10:34;;;;;;;3.33;2.60;;;;;;;14.15;54.19;98532.25;6895582;28;20629;-80
2021/05/24 06:13:55;;;;;;;5.20;2.70;;;;;;;14.29;53.55;98503.88;6896469;28;20272;-80
2021/05/24 06:17:16;;;;;;;3.67;2.53;;;;;;;14.70;51.81;98521.91;6915987;28;20208;-80
2021/05/24 06:20:38;;;;;;;2.90;2.50;;;;;;;14.40;52.62;98532.06;6921424;28;20235;-81
2021/05/24 06:23:59;;;;;;;2.60;2.37;;;;;;;14.75;52.55;98527.47;6917264;28;20206;-80
2021/05/24 06:27:20;;;;;;;4.00;2.80;;;;;;;15.02;50.42;98526.69;6922775;28;20211;-80
2021/05/24 06:30:42;;;;;;;2.87;2.67;;;;;;;15.03;51.13;98522.91;6923484;28;20235;-80
2021/05/24 06:34:03;;;;;;;4.87;2.63;;;;;;;15.26;51.41;98522.00;6923558;28;20189;-80
2021/05/24 06:37:25;;;;;;;3.33;2.77;;;;;;;15.03;52.55;98513.91;6923068;28;20204;-80
2021/05/24 06:40:47;;;;;;;2.83;2.60;;;;;;;15.31;51.71;98513.94;6921168;28;20230;-80
2021/05/24 06:44:08;;;;;;;2.77;2.50;;;;;;;14.88;52.16;98468.31;6922845;28;20216;-80
2021/05/24 06:47:29;;;;;;;3.33;2.63;;;;;;;15.88;50.70;98516.44;6919985;28;20225;-79
2021/05/24 06:50:50;;;;;;;3.50;2.53;;;;;;;15.61;51.87;98520.00;6945961;28;20615;-80
2021/05/24 06:54:12;;;;;;;3.50;2.50;;;;;;;15.53;50.88;98472.31;6950300;28;20199;-79
2021/05/24 06:57:33;;;;;;;2.43;2.23;;;;;;;15.86;51.25;98517.75;6950811;28;20722;-81
2021/05/24 07:00:54;;;;;;;5.33;2.60;;;;;;;15.60;51.31;98469.44;6949795;28;20234;-80
2021/05/24 07:04:15;;;;;;;4.23;2.40;;;;;;;15.99;51.08;98509.25;6948662;28;20218;-80
2021/05/24 07:07:36;;;;;;;3.73;2.33;;;;;;;16.41;49.81;98514.06;6949663;28;20203;-80
2021/05/24 07:10:58;;;;;;;3.73;2.57;;;;;;;15.97;50.69;98495.06;6949327;28;20239;-80
2021/05/24 07:14:20;;;;;;;3.03;2.30;;;;;;;16.65;49.95;98509.25;6949430;28;20261;-78
2021/05/24 07:17:41;;;;;;;3.90;2.63;;;;;;;17.12;48.96;98500.34;6939043;28;20214;-81
2021/05/24 07:21:02;;;;;;;2.93;2.57;;;;;;;16.88;49.18;98507.09;6922010;28;20280;-80
2021/05/24 07:24:23;;;;;;;5.23;2.57;;;;;;;17.44;48.15;98473.19;6920016;28;20222;-81
2021/05/24 07:27:45;;;;;;;3.30;2.30;;;;;;;17.76;46.92;98480.34;6922115;28;20220;-80
2021/05/24 07:31:06;;;;;;;3.07;2.30;;;;;;;17.73;46.97;98489.06;6920252;28;20231;-79
2021/05/24 07:34:27;;;;;;;3.83;2.37;;;;;;;17.14;48.33;98510.97;6921671;28;20246;-80
2021/05/24 07:37:49;;;;;;;2.30;2.10;;;;;;;17.68;48.01;98510.00;6920801;28;20211;-79
2021/05/24 07:41:10;;;;;;;2.43;2.17;;;;;;;17.91;47.01;98479.66;6920778;28;20597;-81
2021/05/24 07:44:32;;;;;;;3.97;2.83;;;;;;;17.41;47.61;98477.28;6921194;28;20223;-79
2021/05/24 07:47:53;;;;;;;4.87;3.00;;;;;;;18.30;46.88;98490.09;6921301;28;20203;-80
2021/05/24 07:51:14;;;;;;;3.93;2.40;;;;;;;17.57;48.11;98492.69;6909165;28;20222;-81
2021/05/24 07:54:36;;;;;;;2.20;2.00;;;;;;;18.02;48.48;98475.94;6924924;28;20223;-80
2021/05/24 07:57:57;;;;;;;3.27;2.10;;;;;;;18.97;45.72;98468.38;6948311;28;20207;-80
2021/05/24 08:01:19;;;;;;;2.70;2.00;;;;;;;19.27;45.22;98474.03;6920994;28;20230;-81
2021/05/24 08:04:40;;;;;;;2.40;2.20;;;;;;;18.77;45.11;98473.75;6919656;28;20222;-81
2021/05/24 08:08:01;;;;;;;2.13;1.90;;;;;;;18.75;44.83;98454.09;6921420;28;20207;-80
2021/05/24 08:11:23;;;;;;;1.77;1.67;;;;;;;19.69;43.18;98474.66;6926415;28;20593;-78
2021/05/24 08:14:44;;;;;;;2.50;2.07;;;;;;;20.12;41.71;98458.59;6917984;28;20227;-77
2021/05/24 08:18:08;;;;;;;2.17;1.90;;;;;;;20.18;39.78;98421.91;6920108;28;20551;-80
2021/05/24 08:21:29;;;;;;;1.63;1.53;;;;;;;21.07;38.98;98449.31;6918439;28;20306;-81
2021/05/24 08:24:51;;;;;;;1.80;1.70;;;;;;;20.32;40.37;98441.28;6919885;28;20207;-77
2021/05/24 08:28:12;;;;;;;2.00;1.80;;;;;;;20.58;39.09;98416.31;6919675;28;20211;-81
2021/05/24 08:31:33;;;;;;;2.87;1.60;;;;;;;20.67;39.76;98431.88;6921421;28;20231;-81
2021/05/24 08:34:55;;;;;;;1.67;1.30;;;;;;;20.90;38.12;98424.19;6924510;28;20236;-79
2021/05/24 08:38:16;;;;;;;1.27;1.23;;;;;;;20.67;37.99;98407.22;6916610;28;20248;-81
2021/05/24 08:41:38;;;;;;;1.30;1.20;;;;;;;20.77;37.43;98408.31;6917826;28;20244;-81
2021/05/24 08:44:59;;;;;;;1.30;1.30;;;;;;;19.48;39.05;98405.44;6897427;28;20213;-79
2021/05/24 08:48:20;;;;;;;1.40;1.30;;;;;;;20.15;39.06;98392.31;6897757;28;20205;-81
2021/05/24 08:51:42;;;;;;;1.47;1.37;;;;;;;20.65;37.08;98389.47;6897811;28;20233;-80
2021/05/24 08:55:04;;;;;;;1.93;1.60;;;;;;;21.06;37.62;98387.38;6897540;28;20617;-79
2021/05/24 08:58:25;;;;;;;1.20;1.10;;;;;;;;;;6897954;28;20208;-80
2021/05/24 09:01:46;;;;;;;1.83;1.20;;;;;;;20.54;35.63;98384.28;6897306;28;20233;-81
2021/05/24 09:05:09;;;;;;;1.97;1.30;;;;;;;21.62;34.20;98364.78;6898733;28;20225;-80
2021/05/24 09:08:36;;;;;;;1.67;1.17;;;;;;;22.10;33.65;98381.16;6898263;28;20684;-80
2021/05/24 09:11:57;;;;;;;1.30;1.20;;;;;;;22.24;33.89;98389.53;6896620;28;20236;-79
2021/05/24 09:15:20;;;;;;;1.50;1.17;;;;;;;22.85;33.27;98374.03;6897087;28;20662;-78
2021/05/24 09:19:11;;;;;;;1.07;1.00;;;;;;;22.37;32.16;98373.16;6896645;28;20230;-78
2021/05/24 09:22:32;;;;;;;1.40;1.07;;;;;;;22.44;32.77;98375.59;6896573;28;20230;-77
2021/05/24 09:26:00;;;;;;;2.00;1.10;;;;;;;22.74;31.92;98365.09;6896906;28;20214;-79
2021/05/24 09:29:25;;;;;;;1.00;1.00;;;;;;;22.91;34.09;98361.84;6896504;28;20211;-78
2021/05/24 09:32:46;;;;;;;2.40;1.47;;;;;;;22.55;34.14;98366.94;6895586;28;20661;-79
2021/05/24 09:36:08;;;;;;;3.10;2.20;;;;;;;22.51;34.28;98368.66;6897157;28;20228;-79
2021/05/24 09:39:30;;;;;;;2.53;1.77;;;;;;;22.95;33.45;98366.44;6913509;28;20207;-77
2021/05/24 09:42:53;;;;;;;3.23;1.43;;;;;;;22.20;33.97;98369.25;6902774;28;20311;-79
2021/05/24 09:46:19;;;;;;;1.40;1.30;;;;;;;22.72;34.13;98361.00;6916925;23;20228;-76
2021/05/24 09:49:41;;;;;;;1.27;1.17;;;;;;;23.19;32.13;98344.44;6889860;28;20557;-76
2021/05/24 09:53:03;;;;;;;2.30;1.63;;;;;;;22.88;33.13;98344.00;6891668;28;20595;-75
2021/05/24 09:56:25;;;;;;;2.07;1.53;;;;;;;23.09;34.19;98344.53;6900472;28;20231;-76
2021/05/24 09:59:48;;;;;;;2.30;1.67;;;;;;;22.72;35.26;98334.31;6907018;28;20206;-76
2021/05/24 10:03:10;;;;;;;1.80;1.63;;;;;;;23.63;31.14;98337.41;6902515;28;20315;-77
2021/05/24 10:06:32;;;;;;;1.10;1.10;;;;;;;22.86;31.91;98340.75;6905543;28;20203;-76
2021/05/24 10:09:53;;;;;;;1.57;1.47;;;;;;;21.42;33.75;98294.44;6902251;28;20206;-76
2021/05/24 10:13:14;;;;;;;1.77;1.63;;;;;;;23.47;32.84;98297.50;6903343;28;20254;-76
2021/05/24 10:16:42;;;;;;;1.60;1.20;;;;;;;23.89;30.64;98291.81;6904128;28;20701;-76
2021/05/24 10:20:04;;;;;;;2.00;1.27;;;;;;;23.98;30.38;98253.41;6907840;28;20212;-76
2021/05/24 10:23:26;;;;;;;1.40;1.30;;;;;;;24.50;30.51;98295.06;6891173;28;20205;-76
2021/05/24 10:27:07;;;;;;;1.47;1.30;;;;;;;24.37;31.96;98309.63;6914148;28;20643;-75
2021/05/24 10:30:29;;;;;;;1.90;1.70;;;;;;;24.23;31.51;98308.81;6902016;28;20538;-76
2021/05/24 10:33:51;;;;;;;1.40;1.30;;;;;;;24.31;31.21;98299.03;6903254;28;20224;-75
2021/05/24 10:37:14;;;;;;;2.50;1.30;;;;;;;23.63;30.87;98285.13;6904069;28;20242;-76
2021/05/24 10:40:44;;;;;;;1.23;1.10;;;;;;;24.09;32.57;98268.59;6903126;28;20205;-76
2021/05/24 10:44:09;;;;;;;1.10;1.00;;;;;;;23.60;31.60;98284.91;6903533;28;20208;-76
2021/05/24 10:47:30;;;;;;;1.47;1.37;;;;;;;23.20;33.24;98250.59;6917160;28;20302;-76
2021/05/24 10:51:10;;;;;;;1.50;1.40;;;;;;;24.00;32.13;98285.03;6916424;28;20216;-76
2021/05/24 10:54:40;;;;;;;1.27;1.20;;;;;;;23.58;31.76;98281.63;6915028;28;20226;-76
2021/05/24 10:58:03;;;;;;;2.10;1.40;;;;;;;23.65;32.77;98265.56;6915931;28;20210;-76
2021/05/24 11:01:25;;;;;;;1.30;1.20;;;;;;;23.81;32.39;98269.66;6914785;28;20817;-76
2021/05/24 11:04:52;;;;;;;1.50;1.10;;;;;;;23.73;31.76;98267.59;6915249;28;20252;-76
2021/05/24 11:08:25;;;;;;;1.40;1.30;;;;;;;23.45;31.29;98219.94;6915818;28;20234;-76
2021/05/24 11:11:51;;;;;;;1.40;1.30;;;;;;;23.57;32.18;98239.53;6915413;28;20287;-76
2021/05/24 11:15:14;;;;;;;2.07;1.13;;;;;;;23.87;31.93;98263.78;6915397;28;20229;-77
2021/05/24 11:18:40;;;;;;;2.13;1.47;;;;;;;24.30;31.44;98269.84;6915651;28;20209;-76
2021/05/24 11:22:22;;;;;;;1.30;1.20;;;;;;;23.90;31.29;98276.13;6915237;28;20201;-77
2021/05/24 11:25:53;;;;;;;1.07;1.07;;;;;;;23.69;31.98;98217.00;6914964;28;20660;-77
2021/05/24 11:29:16;;;;;;;2.40;1.13;;;;;;;24.23;31.96;98259.22;6911963;28;20729;-78
2021/05/24 11:32:42;;;;;;;2.93;1.40;;;;;;;24.38;31.75;98225.03;6901038;28;20219;-77
2021/05/24 11:36:04;;;;;;;1.90;1.43;;;;;;;24.39;31.80;98251.47;6914323;28;20224;-77
2021/05/24 11:39:40;;;;;;;1.70;1.60;;;;;;;24.28;31.13;98250.03;6915029;28;20213;-78
2021/05/24 11:43:12;;;;;;;2.20;2.00;;;;;;;24.29;30.88;98200.13;6914917;28;20264;-78
2021/05/24 11:46:44;;;;;;;4.50;3.60;;;;;;;24.54;31.03;98199.59;6908150;28;20215;-78
2021/05/24 11:50:08;;;;;;;1.30;1.13;;;;;;;24.52;30.60;98187.22;6914783;28;20206;-78
2021/05/24 11:53:29;;;;;;;1.10;1.10;;;;;;;24.19;30.46;98219.63;6940149;28;20283;-77
2021/05/24 11:56:55;;;;;;;2.43;1.20;;;;;;;23.89;31.25;98213.94;6946213;28;20231;-77
2021/05/24 12:00:20;;;;;;;1.10;1.00;;;;;;;24.18;30.53;98206.97;6941901;28;20665;-77
2021/05/24 12:03:46;;;;;;;1.20;1.10;;;;;;;24.73;29.95;98211.31;6942013;28;20551;-77
2021/05/24 12:07:11;;;;;;;1.23;1.20;;;;;;;24.74;29.08;98201.94;6946486;28;20203;-77
2021/05/24 12:10:35;;;;;;;2.83;1.33;;;;;;;24.52;29.27;98193.56;6948013;28;20213;-77
2021/05/24 12:14:02;;;;;;;1.50;1.10;;;;;;;24.31;29.94;98195.13;6948984;28;20211;-77
2021/05/24 12:17:25;;;;;;;1.40;1.30;;;;;;;25.07;29.35;98189.53;6948628;28;20230;-77
2021/05/24 12:20:46;;;;;;;1.23;1.13;;;;;;;25.13;29.00;98170.94;6947143;28;20216;-77
2021/05/24 12:24:09;;;;;;;1.00;1.00;;;;;;;25.37;26.23;98188.00;6947177;28;20222;-77
2021/05/24 12:27:30;;;;;;;1.33;1.23;;;;;;;24.57;28.26;98088.75;6946950;28;20203;-77
2021/05/24 12:30:53;;;;;;;2.23;1.40;;;;;;;25.09;28.26;98134.88;6947643;28;20199;-77
2021/05/24 12:34:16;;;;;;;1.00;0.90;;;;;;;25.08;26.24;98149.78;6949569;28;20230;-77
2021/05/24 12:37:39;;;;;;;0.90;0.90;;;;;;;25.41;26.90;98164.16;6916468;28;20266;-77
2021/05/24 12:41:02;;;;;;;0.90;0.90;;;;;;;24.98;27.17;98155.56;6922020;28;20210;-77
2021/05/24 12:44:24;;;;;;;0.93;0.90;;;;;;;24.98;28.00;98141.78;6932525;28;20211;-77
2021/05/24 12:47:45;;;;;;;1.20;1.00;;;;;;;25.16;27.21;98162.00;6899935;28;20216;-77
2021/05/24 12:51:15;;;;;;;1.57;1.07;;;;;;;25.07;26.44;98153.66;6915877;28;20612;-77
2021/05/24 12:54:44;;;;;;;2.10;1.10;;;;;;;24.99;26.76;98156.38;6915818;28;20292;-77
2021/05/24 12:58:10;;;;;;;1.13;1.13;;;;;;;25.25;26.29;98151.88;6906957;28;20217;-77
2021/05/24 13:01:32;;;;;;;2.00;1.17;;;;;;;25.10;27.96;98158.56;6918646;28;20207;-77
2021/05/24 13:04:55;;;;;;;5.37;1.40;;;;;;;25.00;28.95;98146.97;6917852;28;20208;-77
2021/05/24 13:08:17;;;;;;;1.80;1.40;;;;;;;24.96;28.69;98127.47;6918430;28;20200;-77
2021/05/24 13:11:55;;;;;;;1.47;1.37;;;;;;;24.82;28.67;98137.75;6900398;28;20296;-77
2021/05/24 13:15:29;;;;;;;1.40;1.30;;;;;;;24.97;29.92;98133.81;6891145;28;20323;-77
2021/05/24 13:27:02;;;;;;;1.57;1.47;;;;;;;25.40;29.52;98144.03;6857685;28;20206;-77
2021/05/24 13:30:27;;;;;;;2.10;1.60;;;;;;;25.48;29.44;98159.81;6905574;28;20218;-77
2021/05/24 13:33:52;;;;;;;3.47;2.00;;;;;;;25.51;28.91;98150.91;6917735;28;20213;-77
2021/05/24 13:37:13;;;;;;;2.70;1.33;;;;;;;25.23;29.67;98143.88;6917611;28;20302;-77
2021/05/24 13:40:36;;;;;;;2.30;1.50;;;;;;;25.31;29.48;98131.31;6917839;28;20203;-77
2021/05/24 13:44:00;;;;;;;1.43;1.33;;;;;;;25.51;29.66;98139.03;6917713;28;20657;-77
2021/05/24 13:47:22;;;;;;;1.43;1.23;;;;;;;25.66;29.98;98128.38;6917731;28;20212;-77
2021/05/24 13:50:43;;;;;;;2.30;1.33;;;;;;;25.73;28.63;98125.19;6916677;28;20276;-77
2021/05/24 13:54:05;;;;;;;2.03;1.50;;;;;;;25.25;29.60;98110.50;6917282;28;20206;-77
2021/05/24 13:57:26;;;;;;;1.53;1.43;;;;;;;25.23;29.95;98110.78;6917382;28;20237;-77
2021/05/24 14:00:48;;;;;;;1.73;1.50;;;;;;;25.08;30.79;98111.16;6917109;28;20555;-77
2021/05/24 14:04:10;;;;;;;1.37;1.27;;;;;;;25.35;29.58;98102.75;6917300;28;20242;-77
2021/05/24 14:07:31;;;;;;;2.50;1.53;;;;;;;25.37;29.58;98100.47;6916664;28;20216;-77
2021/05/24 14:10:52;;;;;;;1.70;1.60;;;;;;;25.28;30.45;98104.34;6916613;28;20200;-77
2021/05/24 14:14:13;;;;;;;1.57;1.47;;;;;;;25.29;30.12;98112.31;6917139;28;20233;-77
2021/05/24 14:17:35;;;;;;;4.23;1.90;;;;;;;25.40;29.23;98101.78;6916648;28;20235;-76
2021/05/24 14:20:56;;;;;;;1.93;1.73;;;;;;;25.44;30.26;98114.66;6916721;28;20238;-77
2021/05/24 14:24:17;;;;;;;2.87;1.50;;;;;;;25.18;30.05;98102.63;6916321;28;20359;-77
2021/05/24 14:27:38;;;;;;;1.70;1.33;;;;;;;25.34;31.23;98103.06;6907147;28;20215;-77
2021/05/24 14:31:02;;;;;;;1.40;1.30;;;;;;;25.47;29.93;98097.44;6913675;28;20259;-77
2021/05/24 14:34:25;;;;;;;1.33;1.23;;;;;;;25.67;30.37;98099.63;6939262;28;20540;-77
2021/05/24 14:37:46;;;;;;;1.57;1.17;;;;;;;25.55;29.66;98112.44;6940643;28;20230;-77
2021/05/24 14:41:07;;;;;;;1.43;1.33;;;;;;;25.36;29.28;98112.66;6915794;28;20223;-77
2021/05/24 14:44:28;;;;;;;1.57;1.50;;;;;;;25.42;30.24;98105.06;6915380;28;20210;-77
2021/05/24 14:47:49;;;;;;;2.30;1.70;;;;;;;25.48;29.44;98107.34;6916399;28;20219;-77
2021/05/24 14:51:12;;;;;;;1.60;1.50;;;;;;;25.77;29.79;98104.09;6906799;28;20213;-77
2021/05/24 14:54:34;;;;;;;1.50;1.40;;;;;;;25.94;29.52;98093.91;6911718;28;20214;-81
2021/05/24 14:57:55;;;;;;;1.53;1.43;;;;;;;24.83;27.70;98116.53;6912306;28;20227;-77
2021/05/24 15:01:16;;;;;;;2.60;2.40;;;;;;;24.62;29.38;98118.94;6915625;28;20204;-76
2021/05/24 15:04:37;;;;;;;2.57;2.13;;;;;;;24.78;29.51;98116.66;6897382;28;20221;-77
2021/05/24 15:08:00;;;;;;;2.97;2.67;;;;;;;24.61;28.96;98092.50;6916548;28;20690;-77
2021/05/24 15:11:21;;;;;;;4.20;2.07;;;;;;;24.78;29.51;98095.38;6916728;28;20213;-76
2021/05/24 15:14:44;;;;;;;2.83;1.90;;;;;;;24.98;29.08;98100.41;6917019;28;20214;-77
2021/05/24 15:18:05;;;;;;;3.17;1.90;;;;;;;25.17;29.22;98080.84;6916905;28;20263;-77
2021/05/24 15:21:27;;;;;;;2.00;1.50;;;;;;;25.08;27.84;98075.28;6896894;28;20222;-77
2021/05/24 15:24:51;;;;;;;1.53;1.30;;;;;;;25.12;28.13;98086.53;6917312;28;20209;-77
2021/05/24 15:28:13;;;;;;;1.77;1.40;;;;;;;24.96;27.96;98071.50;6916344;28;20257;-77
2021/05/24 15:31:34;;;;;;;1.67;1.57;;;;;;;25.11;28.88;98073.84;6916665;28;20206;-77
2021/05/24 15:34:57;;;;;;;1.40;1.30;;;;;;;24.40;28.95;98076.72;6909855;28;20224;-77
2021/05/24 15:38:18;;;;;;;3.10;1.70;;;;;;;23.98;29.92;98077.97;6916479;28;20207;-76
2021/05/24 15:41:41;;;;;;;1.70;1.60;;;;;;;24.28;29.61;98060.75;6913576;28;20221;-77
2021/05/24 15:45:03;;;;;;;1.70;1.50;;;;;;;24.52;30.06;98063.19;6915963;28;20220;-77
2021/05/24 15:48:26;;;;;;;1.50;1.30;;;;;;;24.25;29.84;98077.09;6904007;28;20284;-77
2021/05/24 15:51:47;;;;;;;1.87;1.60;;;;;;;24.27;29.76;98074.81;6888770;28;20220;-77
2021/05/24 15:55:10;;;;;;;1.67;1.40;;;;;;;24.16;29.39;98084.44;6889195;28;20233;-77
2021/05/24 15:58:38;;;;;;;2.83;1.80;;;;;;;24.28;28.83;98052.47;6888853;28;20204;-76
2021/05/24 16:01:59;;;;;;;1.33;1.23;;;;;;;24.55;28.31;98095.66;6888914;28;20203;-76
2021/05/24 16:05:21;;;;;;;1.40;1.30;;;;;;;24.40;28.04;98082.22;6889312;28;20214;-77
2021/05/24 16:08:42;;;;;;;2.37;1.20;;;;;;;24.37;27.99;98091.94;6890039;28;20236;-76
2021/05/24 16:12:04;;;;;;;2.13;1.40;;;;;;;24.35;28.04;98066.63;6889278;28;20677;-80
2021/05/24 16:15:26;;;;;;;1.10;1.00;;;;;;;24.38;27.78;98107.38;6889218;28;20720;-76
2021/05/24 16:18:47;;;;;;;1.67;1.10;;;;;;;23.83;28.22;98135.28;6889345;28;20214;-77
2021/05/24 16:22:09;;;;;;;3.03;1.60;;;;;;;22.10;33.53;98142.25;6889646;28;20207;-77
2021/05/24 16:25:34;;;;;;;3.87;1.83;;;;;;;22.12;34.41;98133.75;6908858;28;20213;-77
2021/05/24 16:28:58;;;;;;;2.63;1.60;;;;;;;21.61;35.42;98121.72;6905300;28;20588;-77
2021/05/24 16:32:21;;;;;;;4.57;1.87;;;;;;;21.57;35.33;98184.59;6905133;28;20206;-77
2021/05/24 16:35:43;;;;;;;3.27;1.83;;;;;;;21.21;36.29;98204.41;6941568;28;20231;-77
2021/05/24 16:39:06;;;;;;;4.97;2.00;;;;;;;21.39;35.91;98181.75;6941501;28;20295;-77
2021/05/24 16:42:28;;;;;;;2.77;1.93;;;;;;;21.36;36.00;98210.56;6940895;28;20661;-78
2021/05/24 16:45:50;;;;;;;3.37;1.63;;;;;;;21.08;37.11;98229.75;6941678;28;20684;-77
2021/05/24 16:49:12;;;;;;;3.97;1.90;;;;;;;20.94;36.99;98220.50;6906362;28;20634;-77
2021/05/24 16:52:34;;;;;;;1.60;1.50;;;;;;;21.22;36.99;98213.47;6889962;28;20245;-77
2021/05/24 16:55:57;;;;;;;4.20;1.93;;;;;;;21.02;37.42;98237.16;6891491;28;20220;-77
2021/05/24 16:59:20;;;;;;;3.23;1.57;;;;;;;20.76;37.57;98234.06;6889288;28;20262;-77
2021/05/24 17:02:42;;;;;;;1.70;1.40;;;;;;;20.22;37.85;98227.78;6890398;28;20211;-77
2021/05/24 17:06:05;;;;;;;3.03;1.57;;;;;;;20.65;37.57;98241.53;6914496;28;20205;-77
2021/05/24 17:09:28;;;;;;;3.07;1.50;;;;;;;20.34;37.78;98240.03;6918589;28;20233;-77
2021/05/24 17:12:50;;;;;;;5.13;1.60;;;;;;;20.25;38.00;98211.63;6917930;28;20216;-77
2021/05/24 17:16:11;;;;;;;2.67;1.60;;;;;;;20.59;38.24;98253.63;6918541;28;20709;-77
2021/05/24 17:19:32;;;;;;;1.97;1.80;;;;;;;20.64;38.14;98260.97;6918206;28;20655;-77
2021/05/24 17:22:54;;;;;;;1.93;1.60;;;;;;;20.34;39.41;98256.47;6918076;28;20237;-77
2021/05/24 17:26:16;;;;;;;4.00;1.83;;;;;;;20.53;38.60;98216.41;6915148;28;20204;-77
2021/05/24 17:29:37;;;;;;;3.03;1.80;;;;;;;20.83;37.76;98271.00;6901001;28;20232;-77
2021/05/24 17:32:59;;;;;;;3.53;1.80;;;;;;;20.59;38.20;98234.44;6915465;28;20381;-77
2021/05/24 17:36:20;;;;;;;3.97;2.20;;;;;;;20.44;38.82;98233.69;6889221;28;20232;-77
2021/05/24 17:39:42;;;;;;;2.73;1.97;;;;;;;20.31;39.00;98259.78;6889898;28;20216;-77
2021/05/24 17:43:04;;;;;;;2.03;1.83;;;;;;;20.43;38.80;98270.38;6889655;28;20205;-77
2021/05/24 17:46:27;;;;;;;3.37;1.60;;;;;;;20.26;39.55;98278.97;6890019;28;20208;-78
2021/05/24 17:49:59;;;;;;;2.10;1.80;;;;;;;20.50;38.90;98282.69;6891766;28;20208;-77
2021/05/24 17:53:21;;;;;;;1.97;1.50;;;;;;;19.85;40.16;98293.00;6896623;28;20201;-77
2021/05/24 17:56:43;;;;;;;4.00;2.40;;;;;;;20.04;40.17;98308.53;6893851;28;20225;-77
2021/05/24 18:00:06;;;;;;;2.57;1.90;;;;;;;19.68;40.67;98241.31;6902065;28;20216;-76
2021/05/24 18:03:28;;;;;;;6.37;1.90;;;;;;;19.19;42.45;98322.25;6908612;28;20208;-76
2021/05/24 18:06:49;;;;;;;2.07;1.67;;;;;;;19.62;42.02;98313.53;6900169;28;20213;-77
2021/05/24 18:10:13;;;;;;;4.13;2.70;;;;;;;19.56;43.49;98279.09;6901889;28;20220;-77
2021/05/24 18:13:37;;;;;;;3.67;2.30;;;;;;;19.54;44.27;98330.50;6901705;28;20211;-77
2021/05/24 18:16:58;;;;;;;3.47;1.83;;;;;;;19.24;44.79;98316.84;6902356;28;20229;-77
2021/05/24 18:20:20;;;;;;;5.20;2.13;;;;;;;19.48;45.79;98298.78;6899311;28;20211;-77
2021/05/24 18:23:45;;;;;;;4.07;2.00;;;;;;;19.49;46.78;98296.88;6898504;28;20670;-77
2021/05/24 18:27:06;;;;;;;4.40;2.17;;;;;;;19.09;46.12;98305.84;6899729;28;20217;-77
2021/05/24 18:30:29;;;;;;;3.27;1.90;;;;;;;20.10;45.06;98337.56;6901774;28;20205;-77
2021/05/24 18:33:50;;;;;;;2.23;2.00;;;;;;;19.95;45.01;98334.03;6900518;28;20204;-77
2021/05/24 18:37:11;;;;;;;3.07;1.63;;;;;;;19.99;46.04;98335.13;6905027;28;20235;-77
2021/05/24 18:40:33;;;;;;;1.83;1.73;;;;;;;20.07;44.44;98334.56;6906207;28;20206;-77
2021/05/24 18:43:55;;;;;;;4.60;1.80;;;;;;;19.84;45.52;98357.00;6943533;28;20658;-77
2021/05/24 18:47:17;;;;;;;2.70;1.90;;;;;;;19.21;46.57;98317.38;6932886;28;20755;-77
2021/05/24 18:50:40;;;;;;;3.60;1.70;;;;;;;19.35;47.24;98367.66;6914683;28;20554;-76
2021/05/24 18:54:01;;;;;;;1.87;1.77;;;;;;;19.19;48.17;98363.25;6915699;28;20200;-76
2021/05/24 18:57:22;;;;;;;3.00;2.17;;;;;;;19.24;48.57;98357.00;6915217;28;20281;-77
2021/05/24 19:00:44;;;;;;;3.57;1.93;;;;;;;18.36;48.00;98250.78;6906589;28;20201;-76
2021/05/24 19:04:21;;;;;;;2.50;2.10;;;;;;;18.65;49.34;98285.56;6889428;28;20211;-76
2021/05/24 19:07:42;;;;;;;4.67;3.50;;;;;;;18.81;49.00;98311.78;6891254;28;20200;-76
2021/05/24 19:11:05;;;;;;;2.87;2.10;;;;;;;18.74;50.98;98332.28;6888140;28;20216;-76
2021/05/24 19:14:26;;;;;;;3.23;1.93;;;;;;;18.81;50.87;98319.19;6935461;28;20231;-76
2021/05/24 19:17:48;;;;;;;2.83;2.50;;;;;;;18.93;51.84;98366.19;6904135;28;20254;-76
2021/05/24 19:21:10;;;;;;;6.70;2.53;;;;;;;18.89;51.08;98385.03;6897627;28;20207;-76
2021/05/24 19:24:32;;;;;;;3.60;1.90;;;;;;;18.61;51.84;98344.50;6915159;28;20280;-76
2021/05/24 19:27:53;;;;;;;7.43;2.40;;;;;;;18.26;51.81;98314.31;6911866;28;20212;-76
2021/05/24 19:31:15;;;;;;;2.47;2.20;;;;;;;18.53;52.12;98369.59;6900519;28;20207;-76
2021/05/24 19:34:36;;;;;;;3.97;2.53;;;;;;;17.91;53.32;98322.28;6897412;28;20201;-76